Startpagina
METAR-TAF:

METAR-TAF

Vliegvelden :

Brussels Airport. Zaventem

Brussel, België

breedte: 50-54N, lengte: 004-32E, hoogte: 55 m

Actueel weer

Dit bericht is 38 minuten geleden gemaakt, om 05:50 UTC
Wind 6 kt uit het zuidzuidwesten
Temperatuur 13°C
Vochtigheid 88%
Druk 1017 hPa
Zicht: 4000 m
nevel

METAR: EBBR 170550Z 20006KT 4000 BR NSC 13/11 Q1017 BECMG 9999 NSW

Tijdstip: 08:28 (06:28 UTC)

Verwachting

Dit bericht is 1 uur en het 18 minuten geleden gemaakt, om 05:10 UTC
Verwachting geldig van 17 om 06 UTC tot 18 om 12 UTC
Zicht 10 km of meer
Weinig wolken op 4500 ft
Tijdelijke
van 17 om 06 UTC tot 17 om 08 UTC
Zicht: 4000 m
nevel, Ondiepe mist
Kans 40% :
Tijdelijke
van 17 om 06 UTC tot 17 om 08 UTC
Zicht: 1200 m
Gebroken wolken op 100 ft
mistbanken
Kans 30%
van 18 om 02 UTC tot 18 om 07 UTC
Zicht: 4000 m
nevel

TAF: EBBR 170510Z 1706/1812 0004KT 9999 FEW045 TEMPO 1706/1708 4000 BR MIFG PROB40 TEMPO 1706/1708 1200 BCFG BKN001 PROB30 1802/1807 4000 BR

Waarnemingen en weersverwachtingen van meer dan 4000 vliegvelden (METAR en TAF).

De beschikbare stations zijn de gele en rode punten op de kaart.

Ga met uw muis naar het station om de naam te zien.

Klik dan om waarnemingen en weersverwachtingen te zien.

kaart wijzigen: klik op de groene knoppen met een zwart kruis om in te zoomen, op de groene knop met een streepje om uit te zoomen of op de groene pijlen voor aangrenzende kaarten.


METAR-TAF: